Cushing, OK

6:44 PM CST on February 23, 2018 (GMT -0600)
Cushing Municipal

Weather History for KCUH - October, 2012

Change the Weather History Date:

Wednesday, October 17, 2012

  Actual Average Record
Temperature  
Mean Temperature 64 °F -  
Max Temperature 78 °F 71 °F 90 °F (1950)
Min Temperature 51 °F 48 °F 29 °F (1948)
Growing Degree Days 14 (Base 50)    
Moisture  
Dew Point 54 °F    
Average Humidity 70    
Maximum Humidity 100    
Minimum Humidity 37    
Precipitation  
Precipitation 0.00 in - - ()
Sea Level Pressure  
Sea Level Pressure 29.58 in    
Wind  
Wind Speed 10 mph (West)    
Max Wind Speed 21 mph    
Max Gust Speed 31 mph    
Visibility 10 miles    
Events      
Averages and records for this station are not official NWS values.
T = Trace of Precipitation, MM = Missing Value Source: NWS Daily Summary

Daily Weather History Graph

Daily Weather History Graph

Search for Another Location

Airport or City:

Trip Planner

Search our weather history database for the weather conditions in past years. The results will help you decide how hot, cold, wet, or windy it might be!

Date:

Astronomy

Oct. 17, 2012 Rise Set
Actual Time 7:36 AM CDT 6:48 PM CDT
Civil Twilight 7:10 AM CDT 7:13 PM CDT
Nautical Twilight 6:40 AM CDT 7:43 PM CDT
Astronomical Twilight 6:10 AM CDT 8:13 PM CDT
Moon 10:05 AM CDT (10/17) 8:31 PM CDT (10/17)
Length of Visible Light 12h 03m
Length of Day
11h 11m
Waxing Crescent, 7% of the Moon is Illuminated
Oct 17
Waxing Crescent
Oct 21
First Quarter
Oct 29
Full
Nov 6
Last Quarter
Nov 13
New

Hourly Weather History & Observations

Time (CDT) Temp. Dew Point Humidity Pressure Visibility Wind Dir Wind Speed Gust Speed Precip Events Conditions
12:15 AM 62.6 °F 59.0 °F 88% 29.55 in 10.0 mi SSE 5.8 mph - N/A   Clear
12:35 AM 62.6 °F 59.0 °F 88% 29.55 in 10.0 mi South 8.1 mph - N/A   Clear
12:55 AM 62.6 °F 59.0 °F 88% 29.54 in 10.0 mi South 10.4 mph 16.1 mph N/A   Clear
1:15 AM 62.6 °F 59.0 °F 88% 29.54 in 10.0 mi South 10.4 mph - N/A   Clear
1:35 AM 62.6 °F 59.0 °F 88% 29.53 in 10.0 mi South 11.5 mph 16.1 mph N/A   Clear
1:55 AM 62.6 °F 59.0 °F 88% 29.53 in 10.0 mi South 8.1 mph - N/A   Clear
2:15 AM 60.8 °F 59.0 °F 94% 29.53 in 10.0 mi South 9.2 mph - N/A   Clear
2:35 AM 60.8 °F 60.8 °F 100% 29.51 in 10.0 mi South 9.2 mph - N/A   Clear
2:55 AM 60.8 °F 60.8 °F 100% 29.51 in 10.0 mi South 9.2 mph 18.4 mph N/A   Clear
3:15 AM 60.8 °F 60.8 °F 100% 29.50 in 10.0 mi South 8.1 mph - N/A   Clear
3:35 AM 60.8 °F 60.8 °F 100% 29.49 in 10.0 mi South 10.4 mph 16.1 mph N/A   Clear
3:55 AM 60.8 °F 60.8 °F 100% 29.48 in 10.0 mi South 10.4 mph 16.1 mph N/A   Clear
4:15 AM 60.8 °F 60.8 °F 100% 29.47 in 10.0 mi South 9.2 mph 16.1 mph N/A   Clear
4:35 AM 60.8 °F 60.8 °F 100% 29.46 in 10.0 mi South 10.4 mph - N/A   Clear
4:55 AM 60.8 °F 60.8 °F 100% 29.45 in 10.0 mi South 11.5 mph 17.3 mph N/A   Clear
5:15 AM 60.8 °F 60.8 °F 100% 29.45 in 10.0 mi South 10.4 mph - N/A   Scattered Clouds
5:35 AM 60.8 °F 60.8 °F 100% 29.44 in 10.0 mi South 12.7 mph - N/A   Mostly Cloudy
5:55 AM 62.6 °F 62.6 °F 100% 29.43 in 10.0 mi South 9.2 mph 16.1 mph N/A   Overcast
6:15 AM 62.6 °F 62.6 °F 100% 29.43 in 10.0 mi South 8.1 mph - N/A   Overcast
6:35 AM 62.6 °F 62.6 °F 100% 29.42 in 10.0 mi South 8.1 mph - N/A   Overcast
6:55 AM 64.4 °F 64.4 °F 100% 29.42 in 10.0 mi South 6.9 mph - N/A   Overcast
7:15 AM 64.4 °F 64.4 °F 100% 29.41 in 10.0 mi South 6.9 mph - N/A   Overcast
7:35 AM 62.6 °F 62.6 °F 100% 29.42 in 10.0 mi South 6.9 mph - N/A   Mostly Cloudy
7:55 AM 62.6 °F 62.6 °F 100% 29.43 in 10.0 mi South 8.1 mph - N/A   Mostly Cloudy
8:15 AM 62.6 °F 62.6 °F 100% 29.43 in 10.0 mi South 8.1 mph - N/A   Scattered Clouds
8:35 AM 64.4 °F 64.4 °F 100% 29.43 in 10.0 mi South 9.2 mph 18.4 mph N/A   Clear
8:55 AM 66.2 °F 64.4 °F 94% 29.43 in 10.0 mi SSW 13.8 mph 17.3 mph N/A   Clear
9:15 AM 68.0 °F 64.4 °F 88% 29.44 in 10.0 mi SSW 9.2 mph - N/A   Clear
9:35 AM 68.0 °F 64.4 °F 88% 29.46 in 10.0 mi SW 12.7 mph - N/A   Scattered Clouds
9:55 AM 69.8 °F 64.4 °F 83% 29.48 in 10.0 mi West 11.5 mph - N/A   Scattered Clouds
10:15 AM 69.8 °F 62.6 °F 78% 29.49 in 10.0 mi West 12.7 mph - N/A   Scattered Clouds
10:35 AM 71.6 °F 62.6 °F 73% 29.51 in 10.0 mi NW 11.5 mph 16.1 mph N/A   Scattered Clouds
10:55 AM 71.6 °F 62.6 °F 73% 29.51 in 10.0 mi NW 10.4 mph - N/A   Mostly Cloudy
11:15 AM 71.6 °F 62.6 °F 73% 29.52 in 10.0 mi NNW 17.3 mph - N/A   Mostly Cloudy
11:55 AM 73.4 °F 62.6 °F 69% 29.51 in 10.0 mi NNE 11.5 mph 17.3 mph N/A   Clear
12:15 PM 75.2 °F 64.4 °F 69% 29.52 in 10.0 mi North 9.2 mph - N/A   Clear
12:35 PM 77.0 °F 62.6 °F 61% 29.54 in 10.0 mi North 8.1 mph 19.6 mph N/A   Clear
12:55 PM 77.0 °F 60.8 °F 57% 29.56 in 10.0 mi North 15.0 mph 24.2 mph N/A   Scattered Clouds
1:15 PM 77.0 °F 60.8 °F 57% 29.57 in 10.0 mi NNW 17.3 mph 25.3 mph N/A   Scattered Clouds
1:35 PM 78.8 °F 59.0 °F 51% 29.57 in 10.0 mi North 16.1 mph 20.7 mph N/A   Scattered Clouds
1:55 PM 78.8 °F 60.8 °F 54% 29.58 in 10.0 mi NW 18.4 mph 25.3 mph N/A   Clear
2:15 PM 75.2 °F 60.8 °F 61% 29.59 in 10.0 mi NW 19.6 mph 28.8 mph N/A   Clear
2:35 PM 75.2 °F 59.0 °F 57% 29.60 in 10.0 mi NW 18.4 mph 27.6 mph N/A   Clear
2:55 PM 73.4 °F 57.2 °F 57% 29.61 in 10.0 mi NNW 18.4 mph 31.1 mph N/A   Clear
3:15 PM 73.4 °F 57.2 °F 57% 29.62 in 10.0 mi NNW 17.3 mph 28.8 mph N/A   Clear
3:35 PM 73.4 °F 55.4 °F 53% 29.64 in 10.0 mi NW 19.6 mph 26.5 mph N/A   Clear
3:55 PM 73.4 °F 51.8 °F 47% 29.64 in 10.0 mi NNW 20.7 mph 28.8 mph N/A   Clear
4:15 PM 71.6 °F 51.8 °F 50% 29.64 in 10.0 mi North 17.3 mph 25.3 mph N/A   Clear
4:35 PM 73.4 °F 50.0 °F 44% 29.66 in 10.0 mi North 17.3 mph 21.9 mph N/A   Clear
4:55 PM 71.6 °F 50.0 °F 46% 29.66 in 10.0 mi NW 15.0 mph 20.7 mph N/A   Clear
5:15 PM 73.4 °F 46.4 °F 38% 29.67 in 10.0 mi NW 18.4 mph 23.0 mph N/A   Clear
5:35 PM 71.6 °F 46.4 °F 41% 29.68 in 10.0 mi NW 10.4 mph 16.1 mph N/A   Clear
5:55 PM 71.6 °F 44.6 °F 38% 29.68 in 10.0 mi NW 10.4 mph 18.4 mph N/A   Clear
6:15 PM 71.6 °F 44.6 °F 38% 29.69 in 10.0 mi NW 10.4 mph - N/A   Clear
6:55 PM 68.0 °F 44.6 °F 43% 29.70 in 10.0 mi NW 6.9 mph - N/A   Clear
7:15 PM 66.2 °F 44.6 °F 46% 29.72 in 10.0 mi NW 6.9 mph - N/A   Clear
7:35 PM 66.2 °F 41.0 °F 40% 29.73 in 10.0 mi NW 9.2 mph - N/A   Clear
7:55 PM 64.4 °F 39.2 °F 40% 29.75 in 10.0 mi NNW 9.2 mph - N/A   Clear
8:15 PM 64.4 °F 37.4 °F 37% 29.76 in 10.0 mi NW 11.5 mph 18.4 mph N/A   Clear
8:35 PM 62.6 °F 35.6 °F 37% 29.77 in 10.0 mi NNW 11.5 mph 17.3 mph N/A   Clear
8:55 PM 62.6 °F 35.6 °F 37% 29.77 in 10.0 mi NNW 12.7 mph 19.6 mph N/A   Clear
9:15 PM 62.6 °F 35.6 °F 37% 29.78 in 10.0 mi NNW 9.2 mph - N/A   Clear
9:35 PM 60.8 °F 35.6 °F 39% 29.79 in 10.0 mi NNW 6.9 mph - N/A   Clear
9:55 PM 59.0 °F 35.6 °F 42% 29.80 in 10.0 mi NW 5.8 mph - N/A   Clear
10:15 PM 57.2 °F 33.8 °F 41% 29.81 in 10.0 mi NW 4.6 mph - N/A   Clear
10:35 PM 55.4 °F 35.6 °F 47% 29.83 in 10.0 mi WNW 6.9 mph - N/A   Clear
10:55 PM 55.4 °F 33.8 °F 44% 29.82 in 10.0 mi WNW 4.6 mph - N/A   Clear
11:15 PM 51.8 °F 35.6 °F 54% 29.83 in 10.0 mi WNW 6.9 mph - N/A   Clear
11:35 PM 51.8 °F 33.8 °F 50% 29.83 in 10.0 mi WNW 6.9 mph - N/A   Clear
11:55 PM 51.8 °F 33.8 °F 50% 29.84 in 10.0 mi WNW 6.9 mph - N/A   Clear